createdAt,value
2017-06-15T00:00:10.780Z,0
2017-06-15T00:00:51.378Z,0
2017-06-15T00:01:32.002Z,0
2017-06-15T00:02:12.648Z,0
2017-06-15T00:02:53.255Z,0
2017-06-15T00:03:33.847Z,0
2017-06-15T00:04:14.461Z,0
2017-06-15T00:04:55.064Z,0
2017-06-15T00:05:35.864Z,0
2017-06-15T00:06:16.462Z,0
2017-06-15T00:06:57.062Z,0
2017-06-15T00:07:37.686Z,0
2017-06-15T00:08:18.279Z,0
2017-06-15T00:08:58.869Z,0
2017-06-15T00:09:39.476Z,0
2017-06-15T00:10:20.068Z,0
2017-06-15T00:11:00.661Z,0
2017-06-15T00:11:41.253Z,0
2017-06-15T00:12:21.854Z,0
2017-06-15T00:13:02.450Z,0
2017-06-15T00:13:43.033Z,0
2017-06-15T00:14:23.642Z,0
2017-06-15T00:15:04.239Z,0
2017-06-15T00:15:44.822Z,0
2017-06-15T00:16:25.392Z,0
2017-06-15T00:17:05.991Z,0
2017-06-15T00:17:46.637Z,0
2017-06-15T00:18:27.199Z,0
2017-06-15T00:19:07.836Z,0
2017-06-15T00:19:48.452Z,0
2017-06-15T00:20:29.056Z,0
2017-06-15T00:21:09.650Z,0
2017-06-15T00:21:50.226Z,0
2017-06-15T00:22:33.751Z,0
2017-06-15T00:23:14.350Z,0
2017-06-15T00:23:54.966Z,0
2017-06-15T00:24:35.562Z,0
2017-06-15T00:25:16.182Z,0
2017-06-15T00:25:56.789Z,0
2017-06-15T00:26:37.382Z,0
2017-06-15T00:27:17.987Z,0
2017-06-15T00:27:58.603Z,0
2017-06-15T00:28:39.205Z,0
2017-06-15T00:29:19.796Z,0
2017-06-15T00:30:00.393Z,0
2017-06-15T00:30:40.989Z,0
2017-06-15T00:31:21.605Z,0
2017-06-15T00:32:02.208Z,0
2017-06-15T00:32:42.800Z,0
2017-06-15T00:33:23.396Z,0
2017-06-15T00:34:04.008Z,0
2017-06-15T00:34:44.625Z,0
2017-06-15T00:35:25.231Z,0
2017-06-15T00:36:05.823Z,0
2017-06-15T00:36:46.432Z,0
2017-06-15T00:37:27.020Z,0
2017-06-15T00:38:07.619Z,0
2017-06-15T00:38:48.214Z,0
2017-06-15T00:39:28.799Z,0
2017-06-15T00:40:09.413Z,0
2017-06-15T00:40:49.998Z,0
2017-06-15T00:41:30.581Z,0
2017-06-15T00:42:11.185Z,0
2017-06-15T00:42:51.800Z,0
2017-06-15T00:43:32.418Z,0
2017-06-15T00:44:13.145Z,0
2017-06-15T00:44:53.794Z,0
2017-06-15T00:45:34.398Z,0
2017-06-15T00:46:14.986Z,0
2017-06-15T00:46:55.586Z,0
2017-06-15T00:47:36.211Z,0
2017-06-15T00:48:16.797Z,0
2017-06-15T00:48:57.413Z,0
2017-06-15T00:49:38.027Z,0
2017-06-15T00:50:18.631Z,0
2017-06-15T00:50:59.215Z,0
2017-06-15T00:51:39.814Z,0
2017-06-15T00:52:20.411Z,0
2017-06-15T00:53:01.003Z,0
2017-06-15T00:53:41.587Z,0
2017-06-15T00:54:22.170Z,0
2017-06-15T00:55:02.780Z,0
2017-06-15T00:55:43.379Z,0
2017-06-15T00:56:23.974Z,0
2017-06-15T00:57:04.568Z,0
2017-06-15T00:57:45.182Z,0
2017-06-15T00:58:25.785Z,0
2017-06-15T00:59:06.383Z,0
2017-06-15T00:59:46.982Z,0
2017-06-15T01:00:27.581Z,0
2017-06-15T01:01:08.182Z,0
2017-06-15T01:01:48.765Z,0
2017-06-15T01:02:29.360Z,0
2017-06-15T01:03:09.978Z,0
2017-06-15T01:03:50.592Z,0
2017-06-15T01:04:31.207Z,0
2017-06-15T01:05:11.810Z,0
2017-06-15T01:05:52.480Z,0
2017-06-15T01:06:33.077Z,0
2017-06-15T01:07:13.688Z,0
2017-06-15T01:07:54.281Z,0
2017-06-15T01:08:34.880Z,0
2017-06-15T01:09:15.474Z,0
2017-06-15T01:09:56.082Z,0
2017-06-15T01:10:36.677Z,0
2017-06-15T01:11:17.255Z,0
2017-06-15T01:11:57.856Z,0
2017-06-15T01:12:38.466Z,0
2017-06-15T01:13:19.056Z,0
2017-06-15T01:13:59.651Z,0
2017-06-15T01:14:40.234Z,0
2017-06-15T01:15:20.838Z,0
2017-06-15T01:16:01.419Z,0
2017-06-15T01:16:42.012Z,0
2017-06-15T01:17:22.619Z,0
2017-06-15T01:18:03.227Z,0
2017-06-15T01:18:43.785Z,0
2017-06-15T01:19:24.384Z,0
2017-06-15T01:20:04.972Z,0
2017-06-15T01:20:45.546Z,0
2017-06-15T01:21:26.133Z,0
2017-06-15T01:22:06.760Z,0
2017-06-15T01:22:47.321Z,0
2017-06-15T01:23:27.916Z,0
2017-06-15T01:24:08.509Z,0
2017-06-15T01:24:49.092Z,0
2017-06-15T01:25:29.699Z,0
2017-06-15T01:26:10.302Z,0
2017-06-15T01:26:50.909Z,0
2017-06-15T01:27:31.489Z,0
2017-06-15T01:28:12.116Z,0
2017-06-15T01:28:52.687Z,0
2017-06-15T01:29:33.265Z,0
2017-06-15T01:30:13.865Z,0
2017-06-15T01:30:54.479Z,0
2017-06-15T01:31:35.078Z,0
2017-06-15T01:32:15.664Z,0
2017-06-15T01:32:56.283Z,0
2017-06-15T01:33:36.867Z,0
2017-06-15T01:34:17.461Z,0
2017-06-15T01:34:58.056Z,0
2017-06-15T01:35:38.664Z,0
2017-06-15T01:36:19.270Z,0
2017-06-15T01:36:59.849Z,0
2017-06-15T01:37:40.454Z,0
2017-06-15T01:38:21.015Z,0
2017-06-15T01:39:01.675Z,0
2017-06-15T01:39:42.263Z,0
2017-06-15T01:40:22.863Z,0
2017-06-15T01:41:03.481Z,0
2017-06-15T01:41:44.088Z,0
2017-06-15T01:42:24.679Z,0
2017-06-15T01:43:05.290Z,0
2017-06-15T01:43:45.885Z,0
2017-06-15T01:44:26.476Z,0
2017-06-15T01:45:07.092Z,0
2017-06-15T01:45:47.685Z,0
2017-06-15T01:46:28.276Z,0
2017-06-15T01:47:08.912Z,0
2017-06-15T01:47:49.500Z,0
2017-06-15T01:48:30.117Z,0
2017-06-15T01:49:10.753Z,0
2017-06-15T01:49:51.368Z,0
2017-06-15T01:50:31.958Z,0
2017-06-15T01:51:12.580Z,0
2017-06-15T01:51:53.177Z,0
2017-06-15T01:52:33.789Z,0
2017-06-15T01:53:14.410Z,0
2017-06-15T01:53:55.023Z,0
2017-06-15T01:54:35.633Z,0
2017-06-15T01:55:16.223Z,0
2017-06-15T01:55:56.818Z,0
2017-06-15T01:56:37.411Z,0
2017-06-15T01:57:18.012Z,0
2017-06-15T01:57:58.600Z,0
2017-06-15T01:58:39.188Z,0
2017-06-15T01:59:19.783Z,0
2017-06-15T02:00:00.382Z,0
2017-06-15T02:00:40.987Z,0
2017-06-15T02:01:21.577Z,4
2017-06-15T02:02:02.180Z,4
2017-06-15T02:02:42.791Z,4
2017-06-15T02:03:23.403Z,4
2017-06-15T02:04:03.998Z,0
2017-06-15T02:04:44.618Z,0
2017-06-15T02:05:25.203Z,0
2017-06-15T02:06:05.817Z,4
2017-06-15T02:06:46.400Z,4
2017-06-15T02:07:26.985Z,4
2017-06-15T02:08:07.579Z,4
2017-06-15T02:08:48.159Z,4
2017-06-15T02:09:28.766Z,4
2017-06-15T02:10:09.371Z,4
2017-06-15T02:10:49.967Z,4
2017-06-15T02:11:30.566Z,4
2017-06-15T02:12:11.143Z,8
2017-06-15T02:12:51.746Z,4
2017-06-15T02:13:32.330Z,4
2017-06-15T02:14:12.922Z,8
2017-06-15T02:14:53.520Z,8
2017-06-15T02:15:34.107Z,4
2017-06-15T02:16:14.740Z,8
2017-06-15T02:16:55.322Z,8
2017-06-15T02:17:35.947Z,8
2017-06-15T02:18:16.554Z,8
2017-06-15T02:18:57.141Z,12
2017-06-15T02:19:37.726Z,12
2017-06-15T02:20:18.302Z,12
2017-06-15T02:20:58.903Z,12
2017-06-15T02:21:39.521Z,16
2017-06-15T02:22:20.099Z,12
2017-06-15T02:23:00.670Z,16
2017-06-15T02:23:41.276Z,16
2017-06-15T02:24:21.876Z,16
2017-06-15T02:25:02.472Z,20
2017-06-15T02:25:43.069Z,20
2017-06-15T02:26:23.670Z,20
2017-06-15T02:27:04.265Z,24
2017-06-15T02:27:44.857Z,24
2017-06-15T02:28:25.434Z,28
2017-06-15T02:29:06.035Z,28
2017-06-15T02:29:46.631Z,32
2017-06-15T02:30:27.217Z,32
2017-06-15T02:31:07.834Z,36
2017-06-15T02:31:48.408Z,36
2017-06-15T02:32:28.991Z,40
2017-06-15T02:33:09.601Z,40
2017-06-15T02:33:50.199Z,44
2017-06-15T02:34:30.775Z,48
2017-06-15T02:35:11.380Z,48
2017-06-15T02:35:51.964Z,52
2017-06-15T02:36:32.555Z,56
2017-06-15T02:37:13.154Z,56
2017-06-15T02:37:53.752Z,64
2017-06-15T02:38:34.340Z,64
2017-06-15T02:39:14.926Z,68
2017-06-15T02:39:55.520Z,76
2017-06-15T02:40:36.116Z,76
2017-06-15T02:41:16.711Z,80
2017-06-15T02:41:57.317Z,84
2017-06-15T02:42:37.911Z,88
2017-06-15T02:43:18.504Z,92
2017-06-15T02:43:59.098Z,96
2017-06-15T02:44:39.733Z,100
2017-06-15T02:45:20.298Z,108
2017-06-15T02:46:00.888Z,108
2017-06-15T02:46:41.477Z,112
2017-06-15T02:47:22.077Z,120
2017-06-15T02:48:02.657Z,124
2017-06-15T02:48:43.261Z,132
2017-06-15T02:49:23.929Z,136
2017-06-15T02:50:04.512Z,140
2017-06-15T02:50:45.089Z,148
2017-06-15T02:51:25.694Z,152
2017-06-15T02:52:06.283Z,160
2017-06-15T02:52:46.933Z,164
2017-06-15T02:53:27.511Z,172
2017-06-15T02:54:08.114Z,176
2017-06-15T02:54:48.715Z,184
2017-06-15T02:55:29.327Z,192
2017-06-15T02:56:09.921Z,196
2017-06-15T02:56:50.526Z,204
2017-06-15T02:57:31.138Z,212
2017-06-15T02:58:11.721Z,220
2017-06-15T02:58:52.330Z,228
2017-06-15T02:59:32.947Z,236
2017-06-15T03:00:13.577Z,240
2017-06-15T03:00:54.184Z,252
2017-06-15T03:01:34.796Z,256
2017-06-15T03:02:15.477Z,264
2017-06-15T03:02:56.105Z,272
2017-06-15T03:03:36.680Z,276
2017-06-15T03:04:17.290Z,288
2017-06-15T03:04:57.863Z,296
2017-06-15T03:05:38.472Z,300
2017-06-15T03:06:19.083Z,312
2017-06-15T03:06:59.667Z,320
2017-06-15T03:07:40.269Z,324
2017-06-15T03:08:20.868Z,332
2017-06-15T03:09:01.469Z,340
2017-06-15T03:09:42.130Z,348
2017-06-15T03:10:22.743Z,356
2017-06-15T03:11:03.338Z,368
2017-06-15T03:11:43.939Z,376
2017-06-15T03:12:24.546Z,388
2017-06-15T03:13:05.147Z,400
2017-06-15T03:13:45.743Z,408
2017-06-15T03:14:26.330Z,420
2017-06-15T03:15:06.926Z,428
2017-06-15T03:15:47.503Z,436
2017-06-15T03:16:28.101Z,448
2017-06-15T03:17:08.692Z,456
2017-06-15T03:17:49.355Z,468
2017-06-15T03:18:29.990Z,476
2017-06-15T03:19:11.418Z,488
2017-06-15T03:19:52.076Z,496
2017-06-15T03:20:32.683Z,508
2017-06-15T03:21:13.283Z,520
2017-06-15T03:21:53.877Z,532
2017-06-15T03:22:34.478Z,548
2017-06-15T03:23:15.100Z,560
2017-06-15T03:23:55.686Z,576
2017-06-15T03:24:36.287Z,592
2017-06-15T03:25:16.864Z,604
2017-06-15T03:25:57.465Z,624
2017-06-15T03:26:38.053Z,644
2017-06-15T03:27:18.650Z,660
2017-06-15T03:27:59.262Z,684
2017-06-15T03:28:39.866Z,708
2017-06-15T03:29:20.509Z,728
2017-06-15T03:30:01.165Z,744
2017-06-15T03:30:41.763Z,768
2017-06-15T03:31:22.358Z,784
2017-06-15T03:32:02.955Z,800
2017-06-15T03:32:43.569Z,812
2017-06-15T03:33:24.151Z,824
2017-06-15T03:34:04.737Z,840
2017-06-15T03:34:45.355Z,852
2017-06-15T03:35:25.940Z,860
2017-06-15T03:36:06.551Z,872
2017-06-15T03:36:47.191Z,888
2017-06-15T03:37:27.782Z,904
2017-06-15T03:38:08.396Z,920
2017-06-15T03:38:48.988Z,932
2017-06-15T03:39:29.589Z,948
2017-06-15T03:40:10.167Z,964
2017-06-15T03:40:50.866Z,980
2017-06-15T03:41:31.521Z,996
2017-06-15T03:42:12.168Z,1016
2017-06-15T03:42:52.788Z,1032
2017-06-15T03:43:33.380Z,1048
2017-06-15T03:44:13.981Z,1064
2017-06-15T03:44:54.575Z,1080
2017-06-15T03:45:35.153Z,1104
2017-06-15T03:46:15.752Z,1140
2017-06-15T03:46:56.338Z,1176
2017-06-15T03:47:36.931Z,1208
2017-06-15T03:48:17.525Z,1240
2017-06-15T03:48:58.126Z,1264
2017-06-15T03:49:38.773Z,1284
2017-06-15T03:50:19.367Z,1340
2017-06-15T03:50:59.972Z,1428
2017-06-15T03:51:40.568Z,1504
2017-06-15T03:52:21.162Z,1584
2017-06-15T03:53:01.761Z,1664
2017-06-15T03:53:42.352Z,1716
2017-06-15T03:54:22.961Z,1756
2017-06-15T03:55:03.577Z,1764
2017-06-15T03:55:44.185Z,1764
2017-06-15T03:56:24.763Z,1740
2017-06-15T03:57:05.431Z,1728
2017-06-15T03:57:46.021Z,1724
2017-06-15T03:58:26.623Z,1720
2017-06-15T03:59:07.213Z,1736
2017-06-15T03:59:47.813Z,1760
2017-06-15T04:00:28.417Z,1792
2017-06-15T04:01:08.983Z,1784
2017-06-15T04:01:49.606Z,1728
2017-06-15T04:02:30.196Z,1652
2017-06-15T04:03:10.792Z,1588
2017-06-15T04:03:51.408Z,1588
2017-06-15T04:04:32.003Z,1676
2017-06-15T04:05:12.648Z,1792
2017-06-15T04:05:53.253Z,1884
2017-06-15T04:06:33.854Z,1948
2017-06-15T04:07:14.428Z,1984
2017-06-15T04:07:55.066Z,2000
2017-06-15T04:08:35.675Z,1984
2017-06-15T04:09:16.287Z,1960
2017-06-15T04:09:56.879Z,1936
2017-06-15T04:10:37.491Z,1888
2017-06-15T04:11:18.085Z,1856
2017-06-15T04:11:58.709Z,1848
2017-06-15T04:12:39.375Z,1824
2017-06-15T04:13:19.975Z,1784
2017-06-15T04:14:00.553Z,1736
2017-06-15T04:14:41.147Z,1688
2017-06-15T04:15:21.761Z,1640
2017-06-15T04:16:02.347Z,1604
2017-06-15T04:16:42.941Z,1572
2017-06-15T04:17:23.536Z,1556
2017-06-15T04:18:04.143Z,1544
2017-06-15T04:18:44.754Z,1528
2017-06-15T04:19:25.359Z,1520
2017-06-15T04:20:05.996Z,1512
2017-06-15T04:20:46.600Z,1500
2017-06-15T04:21:27.210Z,1496
2017-06-15T04:22:07.807Z,1508
2017-06-15T04:22:48.405Z,1516
2017-06-15T04:23:28.998Z,1544
2017-06-15T04:24:09.622Z,1596
2017-06-15T04:24:50.213Z,1688
2017-06-15T04:25:30.857Z,1824
2017-06-15T04:26:11.470Z,2004
2017-06-15T04:26:52.072Z,2172
2017-06-15T04:27:32.669Z,2320
2017-06-15T04:28:13.275Z,2440
2017-06-15T04:28:53.870Z,2520
2017-06-15T04:29:34.480Z,2568
2017-06-15T04:30:15.091Z,2592
2017-06-15T04:30:55.685Z,2588
2017-06-15T04:31:36.278Z,2588
2017-06-15T04:32:16.869Z,2584
2017-06-15T04:32:57.470Z,2596
2017-06-15T04:33:38.090Z,2588
2017-06-15T04:34:18.700Z,2592
2017-06-15T04:34:59.301Z,2596
2017-06-15T04:35:39.914Z,2588
2017-06-15T04:36:20.503Z,2572
2017-06-15T04:37:01.101Z,2476
2017-06-15T04:37:41.702Z,2404
2017-06-15T04:38:22.299Z,2388
2017-06-15T04:39:02.899Z,2408
2017-06-15T04:39:43.497Z,2484
2017-06-15T04:40:24.091Z,2596
2017-06-15T04:41:04.671Z,2764
2017-06-15T04:41:45.261Z,2916
2017-06-15T04:42:25.862Z,2996
2017-06-15T04:43:06.475Z,3216
2017-06-15T04:43:47.094Z,3384
2017-06-15T04:44:27.761Z,3560
2017-06-15T04:45:08.347Z,3856
2017-06-15T04:45:48.944Z,4100
2017-06-15T04:46:29.542Z,4128
2017-06-15T04:47:10.134Z,4428
2017-06-15T04:47:50.727Z,4444
2017-06-15T04:48:31.333Z,4480
2017-06-15T04:49:11.935Z,4216
2017-06-15T04:49:52.524Z,3900
2017-06-15T04:50:33.123Z,3664
2017-06-15T04:51:13.701Z,3508
2017-06-15T04:51:54.298Z,3500
2017-06-15T04:52:34.891Z,3488
2017-06-15T04:53:15.487Z,3464
2017-06-15T04:53:56.094Z,3476
2017-06-15T04:54:36.686Z,3460
2017-06-15T04:55:17.281Z,3408
2017-06-15T04:55:57.871Z,3416
2017-06-15T04:56:38.464Z,3416
2017-06-15T04:57:19.084Z,3352
2017-06-15T04:57:59.670Z,3192
2017-06-15T04:58:40.361Z,3000
2017-06-15T04:59:20.997Z,2896
2017-06-15T05:00:01.592Z,2796
2017-06-15T05:00:42.457Z,2728
2017-06-15T05:01:25.256Z,2716
2017-06-15T05:02:08.528Z,2760
2017-06-15T05:02:50.243Z,2868
2017-06-15T05:03:30.946Z,2984
2017-06-15T05:04:15.104Z,3132
2017-06-15T05:04:57.429Z,3236
2017-06-15T05:05:39.820Z,3292
2017-06-15T05:06:20.510Z,3328
2017-06-15T05:07:01.460Z,3380
2017-06-15T05:07:42.651Z,3444
2017-06-15T05:08:23.429Z,3416
2017-06-15T05:09:04.026Z,3252
2017-06-15T05:09:44.952Z,3044
2017-06-15T05:10:25.544Z,2904
2017-06-15T05:11:06.304Z,2880
2017-06-15T05:11:50.049Z,2944
2017-06-15T05:12:30.661Z,3024
2017-06-15T05:13:11.759Z,3144
2017-06-15T05:13:52.546Z,3372
2017-06-15T05:14:33.143Z,3744
2017-06-15T05:15:13.741Z,4148
2017-06-15T05:15:54.610Z,4504
2017-06-15T05:16:35.228Z,4592
2017-06-15T05:17:15.840Z,4824
2017-06-15T05:17:56.442Z,5068
2017-06-15T05:18:37.060Z,5340
2017-06-15T05:19:17.652Z,5336
2017-06-15T05:19:58.255Z,5564
2017-06-15T05:20:39.249Z,5756
2017-06-15T05:21:19.996Z,5960
2017-06-15T05:22:00.959Z,6312
2017-06-15T05:22:41.764Z,7732
2017-06-15T05:23:22.475Z,19424
2017-06-15T05:24:03.081Z,41120
2017-06-15T05:24:43.752Z,64992
2017-06-15T05:25:24.398Z,83488
2017-06-15T05:26:05.093Z,87520
2017-06-15T05:26:45.734Z,84736
2017-06-15T05:27:26.362Z,84864
2017-06-15T05:28:07.188Z,82592
2017-06-15T05:28:47.781Z,81408
2017-06-15T05:29:28.379Z,84832
2017-06-15T05:30:08.975Z,87360
2017-06-15T05:30:49.558Z,89568
2017-06-15T05:31:30.145Z,90016
2017-06-15T05:32:10.723Z,92992
2017-06-15T05:32:51.329Z,95296
2017-06-15T05:33:31.928Z,94656
2017-06-15T05:34:12.525Z,92096
2017-06-15T05:34:53.124Z,89920
2017-06-15T05:35:33.711Z,88928
2017-06-15T05:36:14.300Z,87776
2017-06-15T05:36:54.899Z,88096
2017-06-15T05:37:35.497Z,88800
2017-06-15T05:38:16.124Z,90176
2017-06-15T05:38:56.724Z,88800
2017-06-15T05:39:37.336Z,88864
2017-06-15T05:40:17.914Z,88800
2017-06-15T05:40:58.527Z,88992
2017-06-15T05:41:39.122Z,89184
2017-06-15T05:42:19.700Z,89472
2017-06-15T05:43:00.311Z,89536
2017-06-15T05:43:40.935Z,89856
2017-06-15T05:44:21.532Z,89248
2017-06-15T05:45:02.124Z,89024
2017-06-15T05:45:42.722Z,87488
2017-06-15T05:46:23.324Z,88000
2017-06-15T05:47:03.926Z,90400
2017-06-15T05:47:44.517Z,92608
2017-06-15T05:48:25.122Z,93664
2017-06-15T05:49:05.744Z,91552
2017-06-15T05:49:46.351Z,88800
2017-06-15T05:50:26.958Z,87648
2017-06-15T05:51:07.533Z,88480
2017-06-15T05:51:48.448Z,88288
2017-06-15T05:52:29.074Z,90080
2017-06-15T05:53:09.805Z,91328
2017-06-15T05:53:50.397Z,91424
2017-06-15T05:54:31.004Z,87744
2017-06-15T05:55:11.596Z,90944
2017-06-15T05:55:52.196Z,88896
2017-06-15T05:56:32.803Z,91680
2017-06-15T05:57:13.392Z,86976
2017-06-15T05:57:53.998Z,86400
2017-06-15T05:58:34.607Z,62592
2017-06-15T05:59:15.187Z,72544
2017-06-15T05:59:55.791Z,83264
2017-06-15T06:00:36.384Z,89632
2017-06-15T06:02:59.976Z,89632
2017-06-15T06:03:40.583Z,89440
2017-06-15T06:04:21.170Z,89504
2017-06-15T06:05:01.768Z,85376
2017-06-15T06:05:42.356Z,83872
2017-06-15T06:06:22.967Z,83008
2017-06-15T06:07:03.573Z,81312
2017-06-15T06:07:44.174Z,82208
2017-06-15T06:08:24.767Z,83488
2017-06-15T06:09:05.455Z,86688
2017-06-15T06:09:46.045Z,87392
2017-06-15T06:10:26.680Z,87296
2017-06-15T06:11:09.322Z,91712
2017-06-15T06:11:49.906Z,92544
2017-06-15T06:12:32.224Z,91648
2017-06-15T06:13:12.834Z,89856
2017-06-15T06:13:53.569Z,93472
2017-06-15T06:14:34.092Z,99712
2017-06-15T06:15:14.707Z,99680
2017-06-15T06:15:55.653Z,98496
2017-06-15T06:16:36.807Z,96608
2017-06-15T06:17:17.401Z,95424
2017-06-15T06:17:58.168Z,93824
2017-06-15T06:18:38.755Z,89504
2017-06-15T06:19:19.531Z,86496
2017-06-15T06:20:00.188Z,83264
2017-06-15T06:20:40.787Z,81376
2017-06-15T06:21:29.608Z,75072
2017-06-15T06:22:14.133Z,79936
2017-06-15T06:22:55.567Z,83840
2017-06-15T06:23:36.253Z,85472
2017-06-15T06:24:25.178Z,88288
2017-06-15T06:25:05.786Z,89824
2017-06-15T06:25:46.396Z,89184
2017-06-15T06:26:27.121Z,90016
2017-06-15T06:27:07.712Z,88704
2017-06-15T06:27:51.078Z,86720
2017-06-15T06:28:44.551Z,91328
2017-06-15T06:29:27.281Z,92288
2017-06-15T06:30:08.121Z,92480
2017-06-15T06:30:53.716Z,90560
2017-06-15T06:31:34.332Z,92352
2017-06-15T06:32:14.934Z,92544
2017-06-15T06:32:55.535Z,92800
2017-06-15T06:33:43.917Z,90112
2017-06-15T06:34:31.283Z,88256
2017-06-15T06:35:12.702Z,88448
2017-06-15T06:35:53.381Z,88352
2017-06-15T06:36:33.986Z,92544
2017-06-15T06:37:14.656Z,92704
2017-06-15T06:37:55.259Z,90848
2017-06-15T06:38:35.898Z,87104
2017-06-15T06:39:16.501Z,85824
2017-06-15T06:39:57.125Z,85408
2017-06-15T06:40:37.743Z,87392
2017-06-15T06:41:18.356Z,84704
2017-06-15T06:41:58.957Z,83168
2017-06-15T06:42:39.585Z,82496
2017-06-15T06:43:20.172Z,82528
2017-06-15T06:44:00.799Z,84480
2017-06-15T06:44:41.388Z,80608
2017-06-15T06:45:22.084Z,86624
2017-06-15T06:46:11.337Z,86240
2017-06-15T06:47:04.162Z,81088
2017-06-15T06:47:55.949Z,77312
2017-06-15T06:48:38.939Z,83776
2017-06-15T06:49:23.026Z,85792
2017-06-15T06:50:04.322Z,88480
2017-06-15T06:50:45.679Z,88736
2017-06-15T06:51:37.805Z,86912
2017-06-15T06:52:26.320Z,87616
2017-06-15T06:53:23.768Z,89408
2017-06-15T06:54:28.794Z,87808
2017-06-15T06:55:29.824Z,86464
2017-06-15T06:56:14.194Z,85792
2017-06-15T06:57:01.945Z,83840
2017-06-15T06:57:54.923Z,82848
2017-06-15T06:58:39.118Z,78688
2017-06-15T06:59:24.371Z,82496
2017-06-15T07:00:14.020Z,73920
2017-06-15T07:01:01.712Z,75456
2017-06-15T07:01:42.321Z,79808
2017-06-15T07:02:23.635Z,77664
2017-06-15T07:03:04.475Z,79168
2017-06-15T07:03:52.604Z,67808
2017-06-15T07:04:37.312Z,65600
2017-06-15T07:05:17.903Z,69952
2017-06-15T07:05:58.518Z,76832
2017-06-15T07:06:39.218Z,77504
2017-06-15T07:07:19.837Z,76512
2017-06-15T07:08:00.475Z,74688
2017-06-15T07:08:41.062Z,76672
2017-06-15T07:09:21.687Z,74720
2017-06-15T07:10:02.285Z,79264
2017-06-15T07:10:42.904Z,78784
2017-06-15T07:11:23.514Z,81888
2017-06-15T07:12:04.121Z,79520
2017-06-15T07:12:44.723Z,76704
2017-06-15T07:13:25.314Z,75968
2017-06-15T07:14:05.919Z,73824
2017-06-15T07:14:46.527Z,72448
2017-06-15T07:15:27.118Z,75648
2017-06-15T07:16:07.758Z,76864
2017-06-15T07:16:48.378Z,77888
2017-06-15T07:17:28.972Z,77536
2017-06-15T07:18:09.575Z,76320
2017-06-15T07:18:50.170Z,74720
2017-06-15T07:19:30.773Z,73632
2017-06-15T07:20:11.385Z,77728
2017-06-15T07:20:52.002Z,77248
2017-06-15T07:21:32.600Z,80928
2017-06-15T07:22:13.193Z,75936
2017-06-15T07:22:53.797Z,68032
2017-06-15T07:23:34.412Z,74784
2017-06-15T07:24:14.993Z,79424
2017-06-15T07:24:55.601Z,80640
2017-06-15T07:25:36.199Z,82624
2017-06-15T07:26:16.825Z,83680
2017-06-15T07:26:57.467Z,83616
2017-06-15T07:27:38.066Z,86048
2017-06-15T07:28:18.662Z,86464
2017-06-15T07:28:59.276Z,86048
2017-06-15T07:29:39.914Z,83200
2017-06-15T07:30:20.506Z,79392
2017-06-15T07:31:01.114Z,76352
2017-06-15T07:31:41.716Z,72704
2017-06-15T07:32:22.329Z,78784
2017-06-15T07:33:02.931Z,71104
2017-06-15T07:33:43.552Z,68224
2017-06-15T07:34:24.153Z,70048
2017-06-15T07:35:04.767Z,69728
2017-06-15T07:35:45.381Z,75232
2017-06-15T07:36:25.991Z,74112
2017-06-15T07:37:06.583Z,71520
2017-06-15T07:37:47.171Z,77088
2017-06-15T07:38:27.793Z,79488
2017-06-15T07:39:08.389Z,82560
2017-06-15T07:39:49.001Z,86848
2017-06-15T07:40:29.642Z,81984
2017-06-15T07:41:10.252Z,78016
2017-06-15T07:41:50.931Z,75776
2017-06-15T07:42:31.540Z,78240
2017-06-15T07:43:12.673Z,75776
2017-06-15T07:43:53.852Z,74976
2017-06-15T07:44:34.443Z,75584
2017-06-15T07:45:15.048Z,77600
2017-06-15T07:45:56.965Z,74624
2017-06-15T07:46:37.577Z,68544
2017-06-15T07:47:18.172Z,67584
2017-06-15T07:47:58.790Z,78656
2017-06-15T07:48:39.399Z,82464
2017-06-15T07:49:20.236Z,86368
2017-06-15T07:50:00.957Z,86688
2017-06-15T07:50:41.496Z,87456
2017-06-15T07:51:22.095Z,84960
2017-06-15T07:52:02.702Z,84192
2017-06-15T07:52:43.976Z,85280
2017-06-15T07:53:24.587Z,82784
2017-06-15T07:54:05.184Z,81984
2017-06-15T07:54:45.802Z,85056
2017-06-15T07:55:26.407Z,85184
2017-06-15T07:56:07.020Z,83936
2017-06-15T07:56:47.789Z,78144
2017-06-15T07:57:28.388Z,73088
2017-06-15T07:58:08.983Z,72896
2017-06-15T07:58:50.227Z,68896
2017-06-15T07:59:30.825Z,57952
2017-06-15T08:00:11.437Z,46304
2017-06-15T08:00:52.239Z,32992
2017-06-15T08:01:32.838Z,21792
2017-06-15T08:02:13.445Z,19072
2017-06-15T08:02:54.048Z,18176
2017-06-15T08:03:34.659Z,17760
2017-06-15T08:04:15.281Z,17536
2017-06-15T08:04:55.893Z,17504
2017-06-15T08:05:36.523Z,17376
2017-06-15T08:06:17.124Z,17056
2017-06-15T08:06:57.734Z,16608
2017-06-15T08:07:38.354Z,16416
2017-06-15T08:08:18.956Z,16416
2017-06-15T08:08:59.540Z,15808
2017-06-15T08:09:40.408Z,15776
2017-06-15T08:10:20.995Z,15680
2017-06-15T08:11:01.638Z,15584
2017-06-15T08:11:42.258Z,14988
2017-06-15T08:12:22.871Z,14400
2017-06-15T08:13:03.468Z,14092
2017-06-15T08:13:44.092Z,13596
2017-06-15T08:14:24.694Z,13420
2017-06-15T08:15:05.321Z,13024
2017-06-15T08:15:45.926Z,11816
2017-06-15T08:16:26.517Z,11324
2017-06-15T08:17:07.108Z,11888
2017-06-15T08:17:47.711Z,11904
2017-06-15T08:18:28.309Z,11600
2017-06-15T08:19:08.904Z,11352
2017-06-15T08:19:49.495Z,11440
2017-06-15T08:20:30.078Z,11384
2017-06-15T08:21:10.694Z,11404
2017-06-15T08:21:51.330Z,11644
2017-06-15T08:22:31.951Z,10924
2017-06-15T08:23:12.567Z,10580
2017-06-15T08:23:53.188Z,10544
2017-06-15T08:24:33.796Z,10424
2017-06-15T08:25:14.385Z,10364
2017-06-15T08:25:54.968Z,10484
2017-06-15T08:26:35.617Z,10204
2017-06-15T08:27:16.204Z,10196
2017-06-15T08:27:56.801Z,9768
2017-06-15T08:28:37.456Z,9584
2017-06-15T08:29:18.283Z,9552
2017-06-15T08:29:58.894Z,9440
2017-06-15T08:30:39.485Z,9436
2017-06-15T08:31:20.073Z,9468
2017-06-15T08:32:00.672Z,9304
2017-06-15T08:32:41.310Z,9252
2017-06-15T08:33:21.918Z,9140
2017-06-15T08:34:02.516Z,9064
2017-06-15T08:34:43.153Z,8924
2017-06-15T08:35:23.758Z,8792
2017-06-15T08:36:04.362Z,8708
2017-06-15T08:36:45.088Z,8540
2017-06-15T08:37:26.420Z,8428
2017-06-15T08:38:08.042Z,8304
2017-06-15T08:38:48.852Z,8244
2017-06-15T08:39:31.000Z,8176
2017-06-15T08:40:13.319Z,8076
2017-06-15T08:40:56.405Z,7936
2017-06-15T08:41:38.832Z,7724
2017-06-15T08:42:21.795Z,7752
2017-06-15T08:43:04.007Z,7572
2017-06-15T08:43:48.817Z,7536
2017-06-15T08:44:31.720Z,7476
2017-06-15T08:45:15.010Z,7428
2017-06-15T08:45:56.994Z,7312
2017-06-15T08:46:40.308Z,7268
2017-06-15T08:47:22.207Z,7016
2017-06-15T08:48:03.801Z,6984
2017-06-15T08:48:45.170Z,7092
2017-06-15T08:49:25.789Z,7068
2017-06-15T08:50:06.431Z,7000
2017-06-15T08:50:47.108Z,6848
2017-06-15T08:51:28.396Z,6808
2017-06-15T08:52:12.324Z,6764
2017-06-15T08:52:54.319Z,6680
2017-06-15T08:53:36.209Z,6632
2017-06-15T08:54:18.096Z,6536
2017-06-15T08:54:59.839Z,6312
2017-06-15T08:55:42.357Z,6324
2017-06-15T08:56:23.926Z,6428
2017-06-15T08:57:07.103Z,6480
2017-06-15T08:57:49.369Z,6508
2017-06-15T08:58:31.148Z,6452
2017-06-15T08:59:13.678Z,6436
2017-06-15T08:59:55.175Z,6356
2017-06-15T09:00:36.906Z,6372
2017-06-15T09:01:19.049Z,6324
2017-06-15T09:02:01.055Z,6208
2017-06-15T09:02:42.771Z,6240
2017-06-15T09:03:24.259Z,6292
2017-06-15T09:04:05.907Z,6288
2017-06-15T09:04:48.213Z,6292
2017-06-15T09:05:30.274Z,6292
2017-06-15T09:06:11.855Z,6232
2017-06-15T09:06:53.948Z,6156
2017-06-15T09:07:35.449Z,6180
2017-06-15T09:08:16.138Z,6168
2017-06-15T09:08:56.914Z,6132
2017-06-15T09:09:37.646Z,6144
2017-06-15T09:10:18.275Z,6112
2017-06-15T09:10:58.894Z,5936
2017-06-15T09:11:39.689Z,5952
2017-06-15T09:12:20.405Z,6000
2017-06-15T09:13:01.081Z,6068
2017-06-15T09:13:41.759Z,6040
2017-06-15T09:14:22.411Z,5992
2017-06-15T09:15:03.059Z,5928
2017-06-15T09:15:43.687Z,5844
2017-06-15T09:16:24.408Z,5808
2017-06-15T09:17:05.086Z,5724
2017-06-15T09:17:47.133Z,5636
2017-06-15T09:18:27.777Z,5652
2017-06-15T09:19:09.409Z,5488